Terminal Aerodrome Forecast
Issued by NWS Louisville, KY

Home | Current Version | Previous Version | Text Only | Print | Product List | Glossary On
Versions: 1 2 3 4 5 6 7 8 9 10 11 12 13 14 15 16 17 18 19 20 21 22 23 24
000
FTUS43 KLMK 160523
TAFLEX
TAF
KLEX 160523Z 1606/1706 21013G18KT P6SM FEW060 BKN120
     FM161000 21014G19KT P6SM VCTS SCT050CB BKN100
      TEMPO 1611/1614 VRB15G25KT 2SM TSRA BKN025CB
     FM161500 22014G19KT P6SM VCSH BKN040
     FM161900 22014G20KT P6SM VCTS SCT040CB BKN060
     FM170200 20010KT P6SM VCTS SCT040CB BKN060=

USA.gov is the U.S. government's official web portal to all federal, state and local government web resources and services.